createdAt,value
2017-03-30T00:00:28.223Z,76.56
2017-03-30T00:01:08.878Z,76.56
2017-03-30T00:01:50.560Z,76.62
2017-03-30T00:02:31.128Z,76.84
2017-03-30T00:03:11.793Z,76.52
2017-03-30T00:03:52.466Z,76.65
2017-03-30T00:04:33.057Z,76.56
2017-03-30T00:05:13.649Z,76.62
2017-03-30T00:05:54.292Z,76.75
2017-03-30T00:06:34.969Z,76.62
2017-03-30T00:07:15.569Z,76.75
2017-03-30T00:07:56.138Z,76.56
2017-03-30T00:08:36.799Z,76.52
2017-03-30T00:09:17.490Z,76.33
2017-03-30T00:09:58.082Z,76.62
2017-03-30T00:10:38.665Z,76.56
2017-03-30T00:11:19.306Z,76.65
2017-03-30T00:11:59.994Z,76.56
2017-03-30T00:12:40.593Z,76.33
2017-03-30T00:13:22.269Z,76.62
2017-03-30T00:14:02.918Z,76.65
2017-03-30T00:14:44.597Z,76.33
2017-03-30T00:15:25.246Z,76.65
2017-03-30T00:16:05.904Z,76.33
2017-03-30T00:16:46.557Z,76.37
2017-03-30T00:17:27.138Z,76.18
2017-03-30T00:18:07.782Z,76.65
2017-03-30T00:18:48.463Z,76.37
2017-03-30T00:19:29.063Z,76.75
2017-03-30T00:20:09.653Z,76.56
2017-03-30T00:20:50.327Z,76.52
2017-03-30T00:21:30.983Z,76.62
2017-03-30T00:22:11.573Z,76.71
2017-03-30T00:22:52.149Z,76.71
2017-03-30T00:23:32.802Z,76.52
2017-03-30T00:24:13.457Z,76.71
2017-03-30T00:24:54.110Z,76.71
2017-03-30T00:25:34.787Z,77
2017-03-30T00:26:15.424Z,76.9
2017-03-30T00:26:56.050Z,76.71
2017-03-30T00:27:36.724Z,76.9
2017-03-30T00:28:17.368Z,76.81
2017-03-30T00:28:58.027Z,76.9
2017-03-30T00:29:38.702Z,77.09
2017-03-30T00:30:19.438Z,77.19
2017-03-30T00:31:00.089Z,77.09
2017-03-30T00:31:40.736Z,76.62
2017-03-30T00:32:21.396Z,76.62
2017-03-30T00:33:02.027Z,77
2017-03-30T00:33:42.693Z,76.62
2017-03-30T00:34:23.342Z,76.62
2017-03-30T00:35:03.992Z,76.9
2017-03-30T00:35:44.663Z,76.71
2017-03-30T00:36:25.312Z,76.71
2017-03-30T00:37:05.964Z,76.71
2017-03-30T00:37:46.615Z,76.71
2017-03-30T00:38:27.293Z,76.42
2017-03-30T00:39:07.894Z,76.71
2017-03-30T00:39:48.472Z,76.81
2017-03-30T00:40:29.043Z,76.9
2017-03-30T00:41:09.696Z,76.71
2017-03-30T00:41:50.309Z,76.71
2017-03-30T00:42:30.884Z,76.62
2017-03-30T00:43:11.527Z,76.81
2017-03-30T00:43:52.184Z,76.71
2017-03-30T00:44:32.839Z,77
2017-03-30T00:45:13.492Z,77
2017-03-30T00:45:54.148Z,76.81
2017-03-30T00:46:34.799Z,76.81
2017-03-30T00:47:15.449Z,77.09
2017-03-30T00:47:56.107Z,76.81
2017-03-30T00:48:36.759Z,77.38
2017-03-30T00:49:17.412Z,77.19
2017-03-30T00:49:58.061Z,77.57
2017-03-30T00:50:38.721Z,77.44
2017-03-30T00:51:19.387Z,77.72
2017-03-30T00:52:00.018Z,77.34
2017-03-30T00:52:40.673Z,77.25
2017-03-30T00:53:21.308Z,77.44
2017-03-30T00:54:01.903Z,77.15
2017-03-30T00:54:42.528Z,77.53
2017-03-30T00:55:23.157Z,77.53
2017-03-30T00:56:03.754Z,77.62
2017-03-30T00:56:44.389Z,77.34
2017-03-30T00:57:25.010Z,77.25
2017-03-30T00:58:05.680Z,77.25
2017-03-30T00:58:46.327Z,77.34
2017-03-30T00:59:26.973Z,77.38
2017-03-30T01:00:07.647Z,77.67
2017-03-30T01:00:48.284Z,77.67
2017-03-30T01:01:28.935Z,77.47
2017-03-30T01:02:09.591Z,77.57
2017-03-30T01:02:50.227Z,77.76
2017-03-30T01:03:30.896Z,77.38
2017-03-30T01:04:11.545Z,77.38
2017-03-30T01:04:52.198Z,77.09
2017-03-30T01:05:32.859Z,77.09
2017-03-30T01:06:13.506Z,77
2017-03-30T01:06:56.103Z,77
2017-03-30T01:07:36.754Z,77.28
2017-03-30T01:08:17.315Z,77
2017-03-30T01:08:59.000Z,77.09
2017-03-30T01:09:39.693Z,76.9
2017-03-30T01:10:21.328Z,77
2017-03-30T01:11:01.914Z,77.19
2017-03-30T01:11:42.565Z,77
2017-03-30T01:12:23.220Z,77.28
2017-03-30T01:13:03.820Z,77.09
2017-03-30T01:13:44.391Z,77
2017-03-30T01:14:25.053Z,77.09
2017-03-30T01:15:05.743Z,76.81
2017-03-30T01:15:46.348Z,76.62
2017-03-30T01:16:26.922Z,76.81
2017-03-30T01:17:09.606Z,76.71
2017-03-30T01:17:50.300Z,77.19
2017-03-30T01:18:31.352Z,77.19
2017-03-30T01:19:12.012Z,76.52
2017-03-30T01:19:52.666Z,76.9
2017-03-30T01:20:33.318Z,76.81
2017-03-30T01:21:13.969Z,76.71
2017-03-30T01:21:54.640Z,77
2017-03-30T01:22:35.274Z,76.9
2017-03-30T01:23:16.848Z,76.71
2017-03-30T01:23:57.504Z,76.71
2017-03-30T01:24:38.156Z,76.71
2017-03-30T01:25:18.832Z,76.9
2017-03-30T01:25:59.452Z,76.81
2017-03-30T01:26:40.097Z,76.71
2017-03-30T01:27:20.766Z,76.52
2017-03-30T01:28:01.318Z,76.71
2017-03-30T01:28:41.939Z,76.81
2017-03-30T01:29:22.576Z,76.62
2017-03-30T01:30:03.164Z,76.81
2017-03-30T01:30:43.782Z,76.62
2017-03-30T01:31:24.424Z,76.62
2017-03-30T01:32:04.994Z,76.81
2017-03-30T01:32:45.647Z,77.09
2017-03-30T01:33:26.290Z,77.19
2017-03-30T01:34:06.868Z,76.33
2017-03-30T01:34:47.502Z,76.71
2017-03-30T01:35:28.094Z,77.28
2017-03-30T01:36:08.699Z,77.25
2017-03-30T01:36:49.277Z,77.15
2017-03-30T01:37:29.911Z,77.28
2017-03-30T01:38:10.502Z,77.19
2017-03-30T01:38:51.193Z,76.9
2017-03-30T01:39:31.780Z,76.33
2017-03-30T01:40:12.419Z,76.9
2017-03-30T01:40:53.008Z,77
2017-03-30T01:41:33.613Z,77
2017-03-30T01:42:14.185Z,77
2017-03-30T01:42:54.827Z,77
2017-03-30T01:43:35.480Z,76.9
2017-03-30T01:44:16.131Z,77
2017-03-30T01:44:56.771Z,77
2017-03-30T01:45:37.443Z,76.52
2017-03-30T01:46:18.104Z,76.52
2017-03-30T01:46:58.758Z,76.42
2017-03-30T01:47:39.410Z,76.71
2017-03-30T01:48:20.032Z,76.62
2017-03-30T01:49:00.690Z,76.71
2017-03-30T01:49:41.318Z,76.71
2017-03-30T01:50:21.923Z,76.62
2017-03-30T01:51:03.526Z,76.81
2017-03-30T01:51:44.125Z,76.42
2017-03-30T01:52:24.725Z,76.62
2017-03-30T01:53:05.335Z,76.33
2017-03-30T01:53:45.980Z,76.33
2017-03-30T01:54:26.556Z,76.33
2017-03-30T01:55:07.225Z,76.62
2017-03-30T01:55:47.830Z,76.52
2017-03-30T01:56:28.409Z,76.33
2017-03-30T01:57:09.071Z,76.52
2017-03-30T01:57:49.689Z,76.52
2017-03-30T01:58:30.331Z,76.23
2017-03-30T01:59:10.994Z,76.62
2017-03-30T01:59:51.646Z,76.62
2017-03-30T02:00:32.292Z,76.33
2017-03-30T02:01:12.957Z,76.14
2017-03-30T02:01:53.609Z,76.14
2017-03-30T02:02:34.265Z,76.33
2017-03-30T02:03:14.831Z,76.42
2017-03-30T02:03:55.486Z,76.23
2017-03-30T02:04:36.136Z,76.14
2017-03-30T02:05:16.796Z,76.14
2017-03-30T02:05:57.464Z,75.95
2017-03-30T02:06:38.101Z,75.85
2017-03-30T02:07:18.752Z,75.85
2017-03-30T02:07:59.387Z,75.85
2017-03-30T02:08:41.022Z,75.85
2017-03-30T02:09:21.617Z,76.04
2017-03-30T02:10:02.188Z,76.23
2017-03-30T02:10:42.835Z,76.14
2017-03-30T02:11:23.529Z,75.95
2017-03-30T02:12:04.113Z,76.14
2017-03-30T02:12:44.713Z,76.04
2017-03-30T02:13:26.696Z,75.85
2017-03-30T02:14:08.333Z,75.95
2017-03-30T02:14:48.907Z,76.14
2017-03-30T02:15:29.555Z,76.23
2017-03-30T02:16:10.192Z,75.85
2017-03-30T02:16:50.753Z,75.85
2017-03-30T02:17:31.414Z,76.33
2017-03-30T02:18:12.034Z,76.23
2017-03-30T02:18:52.625Z,76.14
2017-03-30T02:19:33.374Z,76.23
2017-03-30T02:20:14.009Z,76.04
2017-03-30T02:20:54.587Z,76.23
2017-03-30T02:21:35.229Z,76.14
2017-03-30T02:22:16.884Z,76.23
2017-03-30T02:22:57.477Z,76.33
2017-03-30T02:23:38.108Z,76.33
2017-03-30T02:24:18.778Z,75.47
2017-03-30T02:24:59.412Z,76.23
2017-03-30T02:25:40.085Z,76.04
2017-03-30T02:26:20.720Z,76.33
2017-03-30T02:27:01.375Z,76.23
2017-03-30T02:27:42.060Z,76.33
2017-03-30T02:28:22.677Z,76.23
2017-03-30T02:29:03.335Z,76.14
2017-03-30T02:29:43.982Z,76.23
2017-03-30T02:30:24.633Z,76.23
2017-03-30T02:31:05.287Z,76.23
2017-03-30T02:31:45.950Z,76.14
2017-03-30T02:32:26.598Z,76.04
2017-03-30T02:33:07.230Z,75.76
2017-03-30T02:33:47.873Z,75.85
2017-03-30T02:34:28.470Z,75.85
2017-03-30T02:35:09.102Z,75.85
2017-03-30T02:35:49.727Z,75.85
2017-03-30T02:36:30.311Z,75.85
2017-03-30T02:37:10.948Z,75.85
2017-03-30T02:37:51.590Z,75.95
2017-03-30T02:38:32.156Z,75.85
2017-03-30T02:39:12.793Z,76.04
2017-03-30T02:39:53.467Z,76.04
2017-03-30T02:40:34.119Z,75.85
2017-03-30T02:41:14.784Z,75.76
2017-03-30T02:41:55.424Z,75.66
2017-03-30T02:42:36.077Z,75.85
2017-03-30T02:43:16.656Z,75.85
2017-03-30T02:43:57.251Z,75.85
2017-03-30T02:44:37.832Z,75.85
2017-03-30T02:45:18.496Z,75.76
2017-03-30T02:45:59.204Z,75.85
2017-03-30T02:46:39.875Z,75.85
2017-03-30T02:47:20.459Z,75.85
2017-03-30T02:48:01.087Z,75.85
2017-03-30T02:48:41.731Z,75.95
2017-03-30T02:49:22.397Z,75.85
2017-03-30T02:50:03.070Z,75.85
2017-03-30T02:50:43.713Z,75.85
2017-03-30T02:51:24.364Z,75.85
2017-03-30T02:52:05.009Z,75.76
2017-03-30T02:52:45.678Z,75.76
2017-03-30T02:53:26.315Z,75.76
2017-03-30T02:54:06.874Z,75.76
2017-03-30T02:54:47.521Z,75.76
2017-03-30T02:55:28.157Z,75.85
2017-03-30T02:56:08.734Z,75.95
2017-03-30T02:56:49.375Z,75.95
2017-03-30T02:57:30.016Z,75.85
2017-03-30T02:58:10.574Z,75.95
2017-03-30T02:58:51.241Z,75.85
2017-03-30T02:59:31.895Z,76.04
2017-03-30T03:00:12.535Z,75.85
2017-03-30T03:00:53.210Z,75.85
2017-03-30T03:01:33.841Z,75.85
2017-03-30T03:02:14.509Z,75.85
2017-03-30T03:02:55.155Z,75.85
2017-03-30T03:03:35.804Z,75.76
2017-03-30T03:04:16.461Z,75.85
2017-03-30T03:04:57.116Z,75.95
2017-03-30T03:05:37.771Z,75.76
2017-03-30T03:06:18.419Z,75.76
2017-03-30T03:06:59.075Z,76.23
2017-03-30T03:07:39.726Z,75.47
2017-03-30T03:08:20.304Z,75.76
2017-03-30T03:09:00.905Z,75.76
2017-03-30T03:09:41.481Z,75.47
2017-03-30T03:10:22.133Z,76.04
2017-03-30T03:11:02.810Z,76.23
2017-03-30T03:11:43.415Z,75.76
2017-03-30T03:12:23.980Z,76.14
2017-03-30T03:13:04.643Z,76.04
2017-03-30T03:13:45.298Z,76.33
2017-03-30T03:14:25.936Z,75.85
2017-03-30T03:15:06.594Z,76.04
2017-03-30T03:15:47.321Z,76.33
2017-03-30T03:16:27.899Z,76.33
2017-03-30T03:17:08.562Z,76.14
2017-03-30T03:17:49.213Z,76.23
2017-03-30T03:18:29.805Z,76.33
2017-03-30T03:19:10.402Z,76.14
2017-03-30T03:19:50.970Z,76.23
2017-03-30T03:20:31.612Z,75.95
2017-03-30T03:21:12.212Z,76.14
2017-03-30T03:21:52.797Z,76.04
2017-03-30T03:22:33.366Z,75.95
2017-03-30T03:23:14.018Z,76.14
2017-03-30T03:23:54.681Z,76.04
2017-03-30T03:24:35.336Z,76.14
2017-03-30T03:25:15.987Z,76.04
2017-03-30T03:25:56.639Z,76.14
2017-03-30T03:26:37.301Z,75.76
2017-03-30T03:27:17.941Z,75.85
2017-03-30T03:27:58.586Z,75.85
2017-03-30T03:28:39.174Z,75.85
2017-03-30T03:29:19.797Z,76.14
2017-03-30T03:30:00.375Z,75.85
2017-03-30T03:30:40.992Z,76.14
2017-03-30T03:31:21.579Z,76.33
2017-03-30T03:32:02.193Z,76.62
2017-03-30T03:32:42.759Z,76.62
2017-03-30T03:33:23.415Z,76.42
2017-03-30T03:34:04.950Z,76.71
2017-03-30T03:34:45.537Z,76.71
2017-03-30T03:35:27.215Z,76.42
2017-03-30T03:36:07.863Z,76.62
2017-03-30T03:36:48.531Z,76.62
2017-03-30T03:37:29.162Z,76.57
2017-03-30T03:38:09.822Z,76.33
2017-03-30T03:38:50.478Z,76.48
2017-03-30T03:39:31.120Z,76.62
2017-03-30T03:40:11.827Z,76.52
2017-03-30T03:40:52.701Z,76.29
2017-03-30T03:41:33.296Z,76.42
2017-03-30T03:42:13.967Z,76.42
2017-03-30T03:42:54.597Z,76.42
2017-03-30T03:43:35.240Z,76.33
2017-03-30T03:44:15.903Z,76.23
2017-03-30T03:44:56.611Z,76.23
2017-03-30T03:45:37.236Z,76.33
2017-03-30T03:46:17.881Z,76.71
2017-03-30T03:46:58.521Z,76.33
2017-03-30T03:47:39.170Z,76.81
2017-03-30T03:48:19.762Z,76.71
2017-03-30T03:49:00.362Z,76.71
2017-03-30T03:49:40.936Z,76.77
2017-03-30T03:50:22.620Z,76.33
2017-03-30T03:51:03.296Z,76.62
2017-03-30T03:51:44.007Z,76.62
2017-03-30T03:52:24.562Z,76.71
2017-03-30T03:53:05.210Z,76.71
2017-03-30T03:53:45.908Z,76.77
2017-03-30T03:54:26.553Z,76.77
2017-03-30T03:55:07.213Z,76.71
2017-03-30T03:55:47.865Z,76.57
2017-03-30T03:56:28.531Z,76.42
2017-03-30T03:57:09.266Z,76.42
2017-03-30T03:57:50.025Z,76.42
2017-03-30T03:58:30.743Z,76.62
2017-03-30T03:59:11.310Z,76.71
2017-03-30T03:59:52.094Z,76.39
2017-03-30T04:00:32.846Z,76.42
2017-03-30T04:01:13.550Z,76.71
2017-03-30T04:01:54.119Z,76.77
2017-03-30T04:02:34.775Z,76.42
2017-03-30T04:03:15.451Z,76.71
2017-03-30T04:03:56.114Z,76.42
2017-03-30T04:04:36.766Z,76.42
2017-03-30T04:05:17.526Z,76.71
2017-03-30T04:05:58.278Z,76.81
2017-03-30T04:06:38.974Z,76.71
2017-03-30T04:07:19.678Z,76.62
2017-03-30T04:08:00.339Z,76.52
2017-03-30T04:08:41.053Z,76.42
2017-03-30T04:09:21.707Z,76.62
2017-03-30T04:10:02.374Z,76.9
2017-03-30T04:10:43.125Z,76.71
2017-03-30T04:11:23.880Z,77.19
2017-03-30T04:12:04.629Z,76.96
2017-03-30T04:12:45.386Z,76.81
2017-03-30T04:13:26.043Z,76.77
2017-03-30T04:14:06.798Z,76.9
2017-03-30T04:14:47.447Z,76.96
2017-03-30T04:15:28.105Z,77
2017-03-30T04:16:08.743Z,77.06
2017-03-30T04:16:49.406Z,76.86
2017-03-30T04:17:30.179Z,76.81
2017-03-30T04:18:10.819Z,76.86
2017-03-30T04:18:51.551Z,76.71
2017-03-30T04:19:32.150Z,76.77
2017-03-30T04:20:12.763Z,76.48
2017-03-30T04:20:53.513Z,76.81
2017-03-30T04:21:34.081Z,77
2017-03-30T04:22:14.718Z,76.1
2017-03-30T04:22:55.458Z,76.9
2017-03-30T04:23:37.050Z,77.09
2017-03-30T04:24:17.702Z,77.09
2017-03-30T04:24:58.298Z,76.81
2017-03-30T04:25:39.007Z,76.9
2017-03-30T04:26:19.554Z,76.9
2017-03-30T04:27:00.217Z,77.09
2017-03-30T04:27:40.805Z,77.09
2017-03-30T04:28:21.369Z,77
2017-03-30T04:29:01.975Z,76.67
2017-03-30T04:29:42.596Z,77.09
2017-03-30T04:30:23.154Z,76.9
2017-03-30T04:31:03.852Z,76.9
2017-03-30T04:31:44.468Z,77.09
2017-03-30T04:32:25.034Z,77
2017-03-30T04:33:05.694Z,77.09
2017-03-30T04:33:46.326Z,76.81
2017-03-30T04:34:26.984Z,76.71
2017-03-30T04:35:07.632Z,77
2017-03-30T04:35:48.200Z,77
2017-03-30T04:36:28.818Z,77
2017-03-30T04:37:09.487Z,76.67
2017-03-30T04:37:50.133Z,76.71
2017-03-30T04:38:30.695Z,76.9
2017-03-30T04:39:11.447Z,76.9
2017-03-30T04:39:52.038Z,76.52
2017-03-30T04:40:32.643Z,76.42
2017-03-30T04:41:13.200Z,76.71
2017-03-30T04:41:53.873Z,76.62
2017-03-30T04:42:35.464Z,76.42
2017-03-30T04:43:18.037Z,76.23
2017-03-30T04:43:58.621Z,76.42
2017-03-30T04:44:39.248Z,76.33
2017-03-30T04:45:19.959Z,76.42
2017-03-30T04:46:00.657Z,76.39
2017-03-30T04:46:41.294Z,76.62
2017-03-30T04:47:21.982Z,76.52
2017-03-30T04:48:02.600Z,76.52
2017-03-30T04:48:43.300Z,76.62
2017-03-30T04:49:24.013Z,76.52
2017-03-30T04:50:04.610Z,76.52
2017-03-30T04:50:45.217Z,76.52
2017-03-30T04:51:28.949Z,76.52
2017-03-30T04:52:10.084Z,76.52
2017-03-30T04:52:50.666Z,76.42
2017-03-30T04:53:32.197Z,76.62
2017-03-30T04:54:12.934Z,76.52
2017-03-30T04:54:53.512Z,76.62
2017-03-30T04:55:34.194Z,76.81
2017-03-30T04:56:14.823Z,76.81
2017-03-30T04:56:55.387Z,76.62
2017-03-30T04:57:36.043Z,76.42
2017-03-30T04:58:16.787Z,76.71
2017-03-30T04:58:57.352Z,76.62
2017-03-30T04:59:38.011Z,76.42
2017-03-30T05:00:18.645Z,76.42
2017-03-30T05:00:59.218Z,76.52
2017-03-30T05:01:39.873Z,76.62
2017-03-30T05:02:20.489Z,76.52
2017-03-30T05:03:01.053Z,76.52
2017-03-30T05:03:41.727Z,76.62
2017-03-30T05:04:22.418Z,76.33
2017-03-30T05:05:03.032Z,76.42
2017-03-30T05:05:43.576Z,76.33
2017-03-30T05:06:24.255Z,76.39
2017-03-30T05:07:04.928Z,76.81
2017-03-30T05:07:45.527Z,76.71
2017-03-30T05:08:26.095Z,76.52
2017-03-30T05:09:06.760Z,76.52
2017-03-30T05:09:47.400Z,76.42
2017-03-30T05:10:28.052Z,76.52
2017-03-30T05:11:08.723Z,77
2017-03-30T05:11:49.339Z,77
2017-03-30T05:12:29.995Z,76.81
2017-03-30T05:13:10.683Z,76.81
2017-03-30T05:13:51.299Z,76.81
2017-03-30T05:14:31.990Z,77
2017-03-30T05:15:12.605Z,76.81
2017-03-30T05:15:53.259Z,77.06
2017-03-30T05:16:33.916Z,76.86
2017-03-30T05:17:14.564Z,76.9
2017-03-30T05:17:55.236Z,77.09
2017-03-30T05:18:35.892Z,76.9
2017-03-30T05:19:16.540Z,76.86
2017-03-30T05:19:57.194Z,77.19
2017-03-30T05:20:38.871Z,76.86
2017-03-30T05:21:19.529Z,76.86
2017-03-30T05:22:00.176Z,77.25
2017-03-30T05:22:40.866Z,76.62
2017-03-30T05:23:21.483Z,77.28
2017-03-30T05:24:02.111Z,76.96
2017-03-30T05:24:42.658Z,77.06
2017-03-30T05:25:23.339Z,77.09
2017-03-30T05:26:03.970Z,77.06
2017-03-30T05:26:44.548Z,76.57
2017-03-30T05:27:25.194Z,76.77
2017-03-30T05:28:05.822Z,76.67
2017-03-30T05:28:46.474Z,76.67
2017-03-30T05:29:27.136Z,76.67
2017-03-30T05:30:07.781Z,77.06
2017-03-30T05:30:48.433Z,76.67
2017-03-30T05:31:29.260Z,76.67
2017-03-30T05:32:11.095Z,76.86
2017-03-30T05:32:52.375Z,76.48
2017-03-30T05:33:33.543Z,76.81
2017-03-30T05:34:14.914Z,76.67
2017-03-30T05:34:55.646Z,76.77
2017-03-30T05:35:36.607Z,76.77
2017-03-30T05:36:17.402Z,76.67
2017-03-30T05:36:58.113Z,76.67
2017-03-30T05:37:38.721Z,76.96
2017-03-30T05:38:19.333Z,77.06
2017-03-30T05:38:59.971Z,76.77
2017-03-30T05:39:40.629Z,76.96
2017-03-30T05:40:21.282Z,76.67
2017-03-30T05:41:01.939Z,76.77
2017-03-30T05:41:42.603Z,76.77
2017-03-30T05:42:23.246Z,76.86
2017-03-30T05:43:03.920Z,76.96
2017-03-30T05:43:44.728Z,76.86
2017-03-30T05:44:25.514Z,76.67
2017-03-30T05:45:06.127Z,76.77
2017-03-30T05:45:47.477Z,76.77
2017-03-30T05:46:28.336Z,77.06
2017-03-30T05:47:08.899Z,76.86
2017-03-30T05:47:49.523Z,76.81
2017-03-30T05:48:30.081Z,76.86
2017-03-30T05:49:10.687Z,76.77
2017-03-30T05:49:51.306Z,76.67
2017-03-30T05:50:31.896Z,76.77
2017-03-30T05:51:12.485Z,76.62
2017-03-30T05:51:53.108Z,77.06
2017-03-30T05:52:33.716Z,76.39
2017-03-30T05:53:14.431Z,76.52
2017-03-30T05:53:55.050Z,76.52
2017-03-30T05:54:35.694Z,76.67
2017-03-30T05:55:16.372Z,76.81
2017-03-30T05:55:57.036Z,76.86
2017-03-30T05:56:37.670Z,76.77
2017-03-30T05:57:18.308Z,76.67
2017-03-30T05:57:58.958Z,76.86
2017-03-30T05:58:39.523Z,76.57
2017-03-30T05:59:20.205Z,76.62
2017-03-30T06:00:00.874Z,76.81
2017-03-30T06:00:41.476Z,77
2017-03-30T06:01:22.053Z,76.71
2017-03-30T06:02:02.729Z,77.19
2017-03-30T06:02:43.404Z,77.19
2017-03-30T06:03:23.978Z,76.52
2017-03-30T06:04:04.559Z,77.28
2017-03-30T06:04:45.255Z,77.19
2017-03-30T06:05:25.876Z,76.71
2017-03-30T06:06:06.544Z,76.81
2017-03-30T06:06:47.197Z,77.09
2017-03-30T06:07:28.863Z,77
2017-03-30T06:08:09.520Z,76.9
2017-03-30T06:08:50.185Z,76.71
2017-03-30T06:09:36.367Z,77
2017-03-30T06:10:17.047Z,76.42
2017-03-30T06:10:57.648Z,76.71
2017-03-30T06:11:38.306Z,76.71
2017-03-30T06:12:18.999Z,76.42
2017-03-30T06:13:00.684Z,76.23
2017-03-30T06:13:41.471Z,76.52
2017-03-30T06:14:22.199Z,76.42
2017-03-30T06:15:02.773Z,76.62
2017-03-30T06:15:43.465Z,76.33
2017-03-30T06:16:24.135Z,76.81
2017-03-30T06:17:04.755Z,76.33
2017-03-30T06:17:45.452Z,76.14
2017-03-30T06:18:26.084Z,75.95
2017-03-30T06:19:06.817Z,76.23
2017-03-30T06:19:47.422Z,76.14
2017-03-30T06:20:29.156Z,75.95
2017-03-30T06:21:09.778Z,76.14
2017-03-30T06:21:50.436Z,76.23
2017-03-30T06:22:31.002Z,76.33
2017-03-30T06:23:11.625Z,76.04
2017-03-30T06:23:52.218Z,76.04
2017-03-30T06:24:32.895Z,75.85
2017-03-30T06:25:13.605Z,76.04
2017-03-30T06:25:54.240Z,75.76
2017-03-30T06:26:34.934Z,75.76
2017-03-30T06:27:15.554Z,76.14
2017-03-30T06:27:56.167Z,76.04
2017-03-30T06:28:36.858Z,75.85
2017-03-30T06:29:17.466Z,75.57
2017-03-30T06:29:58.154Z,75.57
2017-03-30T06:30:38.772Z,75.79
2017-03-30T06:31:19.434Z,75.76
2017-03-30T06:32:00.087Z,75.89
2017-03-30T06:32:40.788Z,76.08
2017-03-30T06:33:21.363Z,75.37
2017-03-30T06:34:02.043Z,75.22
2017-03-30T06:34:42.656Z,75.42
2017-03-30T06:35:23.444Z,75.22
2017-03-30T06:36:04.147Z,75.32
2017-03-30T06:36:44.782Z,75.51
2017-03-30T06:37:25.478Z,75.42
2017-03-30T06:38:06.859Z,75.13
2017-03-30T06:38:47.735Z,75.51
2017-03-30T06:39:28.416Z,74.93
2017-03-30T06:40:09.047Z,74.84
2017-03-30T06:40:49.688Z,74.84
2017-03-30T06:41:30.346Z,74.65
2017-03-30T06:42:12.022Z,74.74
2017-03-30T06:42:52.674Z,74.46
2017-03-30T06:43:33.327Z,74.37
2017-03-30T06:44:13.980Z,74.55
2017-03-30T06:44:54.756Z,74.27
2017-03-30T06:45:35.411Z,74.11
2017-03-30T06:46:16.046Z,73.92
2017-03-30T06:46:56.692Z,74.02
2017-03-30T06:47:37.352Z,74.02
2017-03-30T06:48:18.040Z,74.3
2017-03-30T06:48:58.628Z,73.63
2017-03-30T06:49:39.263Z,73.83
2017-03-30T06:50:19.896Z,73.73
2017-03-30T06:51:00.510Z,73.73
2017-03-30T06:51:41.426Z,73.63
2017-03-30T06:52:22.058Z,74.02
2017-03-30T06:53:02.718Z,73.25
2017-03-30T06:53:43.370Z,73.16
2017-03-30T06:54:24.052Z,73.35
2017-03-30T06:55:04.680Z,73.16
2017-03-30T06:55:45.350Z,72.87
2017-03-30T06:56:25.972Z,73.07
2017-03-30T06:57:06.544Z,73.29
2017-03-30T06:57:49.224Z,73.29
2017-03-30T06:58:29.781Z,73.35
2017-03-30T06:59:10.360Z,73.29
2017-03-30T06:59:50.982Z,73.07
2017-03-30T07:00:32.866Z,73.19
2017-03-30T07:01:13.528Z,72.91
2017-03-30T07:01:54.235Z,73
2017-03-30T07:02:34.850Z,72.91
2017-03-30T07:03:15.501Z,73.1
2017-03-30T07:03:56.202Z,72.87
2017-03-30T07:04:36.882Z,72.81
2017-03-30T07:05:17.487Z,73.19
2017-03-30T07:05:58.116Z,73.29
2017-03-30T07:06:38.804Z,72.43
2017-03-30T07:07:19.515Z,72.91
2017-03-30T07:08:00.100Z,72.72
2017-03-30T07:08:41.794Z,72.62
2017-03-30T07:09:22.417Z,72.33
2017-03-30T07:10:03.106Z,72.53
2017-03-30T07:10:43.706Z,72.14
2017-03-30T07:11:24.374Z,72.24
2017-03-30T07:12:05.015Z,72.05
2017-03-30T07:12:45.697Z,72.24
2017-03-30T07:13:26.350Z,72.43
2017-03-30T07:14:07.033Z,71.86
2017-03-30T07:14:48.743Z,71.76
2017-03-30T07:15:29.302Z,71.86
2017-03-30T07:16:09.959Z,72.14
2017-03-30T07:16:50.657Z,71.38
2017-03-30T07:17:31.342Z,71.7
2017-03-30T07:18:11.964Z,71.03
2017-03-30T07:18:52.619Z,71.32
2017-03-30T07:19:33.262Z,71.03
2017-03-30T07:20:13.865Z,71.22
2017-03-30T07:20:54.470Z,70.75
2017-03-30T07:21:35.138Z,70.65
2017-03-30T07:22:15.789Z,70.56
2017-03-30T07:22:56.488Z,70.27
2017-03-30T07:23:37.084Z,70.3
2017-03-30T07:24:17.691Z,69.89
2017-03-30T07:24:58.321Z,70.17
2017-03-30T07:25:38.892Z,69.89
2017-03-30T07:26:19.580Z,69.98
2017-03-30T07:27:00.301Z,69.73
2017-03-30T07:27:40.852Z,69.92
2017-03-30T07:28:21.560Z,69.54
2017-03-30T07:29:02.350Z,69.44
2017-03-30T07:29:42.982Z,69.44
2017-03-30T07:30:23.590Z,69.73
2017-03-30T07:31:04.158Z,69.82
2017-03-30T07:31:44.732Z,69.73
2017-03-30T07:32:25.344Z,69.64
2017-03-30T07:33:07.972Z,69.35
2017-03-30T07:33:48.550Z,69.54
2017-03-30T07:34:29.146Z,69.73
2017-03-30T07:35:09.706Z,69.82
2017-03-30T07:35:51.325Z,69.5
2017-03-30T07:36:31.891Z,69.7
2017-03-30T07:37:12.485Z,69.5
2017-03-30T07:37:53.064Z,69.5
2017-03-30T07:38:33.630Z,69.5
2017-03-30T07:39:14.181Z,69.41
2017-03-30T07:39:54.756Z,69.6
2017-03-30T07:40:35.341Z,69.89
2017-03-30T07:41:16.915Z,69.89
2017-03-30T07:41:57.493Z,69.89
2017-03-30T07:42:38.063Z,69.89
2017-03-30T07:43:18.629Z,69.89
2017-03-30T07:43:59.282Z,69.79
2017-03-30T07:44:39.831Z,69.31
2017-03-30T07:45:20.446Z,69.5
2017-03-30T07:46:01.038Z,69.41
2017-03-30T07:46:41.611Z,69.79
2017-03-30T07:47:22.192Z,69.7
2017-03-30T07:48:02.801Z,69.25
2017-03-30T07:48:43.397Z,68.87
2017-03-30T07:49:24.097Z,69.15
2017-03-30T07:50:07.169Z,69.25
2017-03-30T07:50:47.748Z,69.15
2017-03-30T07:51:28.337Z,68.87
2017-03-30T07:52:08.919Z,68.77
2017-03-30T07:52:49.493Z,68.68
2017-03-30T07:53:30.092Z,68.42
2017-03-30T07:54:10.684Z,68.23
2017-03-30T07:54:51.263Z,68.04
2017-03-30T07:55:31.843Z,68.04
2017-03-30T07:56:12.776Z,67.47
2017-03-30T07:56:53.419Z,67.37
2017-03-30T07:57:34.012Z,67.76
2017-03-30T07:58:14.652Z,67.37
2017-03-30T07:58:55.225Z,67.56
2017-03-30T07:59:35.784Z,67.37
2017-03-30T08:00:16.378Z,67.47
2017-03-30T08:00:56.978Z,67.56
2017-03-30T08:01:37.654Z,67.08
2017-03-30T08:02:18.216Z,66.99
2017-03-30T08:02:58.820Z,66.89
2017-03-30T08:03:39.398Z,66.99
2017-03-30T08:04:20.018Z,66.83
2017-03-30T08:05:00.616Z,66.61
2017-03-30T08:05:41.355Z,66.54
2017-03-30T08:06:21.898Z,66.64
2017-03-30T08:07:02.472Z,66.16
2017-03-30T08:07:43.057Z,66.16
2017-03-30T08:08:23.650Z,66.25
2017-03-30T08:09:04.250Z,66.25
2017-03-30T08:09:44.826Z,66.35
2017-03-30T08:10:25.441Z,66.45
2017-03-30T08:11:06.038Z,66.54
2017-03-30T08:11:46.608Z,66.35
2017-03-30T08:12:27.176Z,66.64
2017-03-30T08:13:07.759Z,66.54
2017-03-30T08:13:48.354Z,66.45
2017-03-30T08:14:28.939Z,66.54
2017-03-30T08:15:09.511Z,66.64
2017-03-30T08:15:50.131Z,66.35
2017-03-30T08:16:30.712Z,66.64
2017-03-30T08:17:11.294Z,66.7
2017-03-30T08:17:51.881Z,66.32
2017-03-30T08:18:32.455Z,66.61
2017-03-30T08:19:13.033Z,66.8
2017-03-30T08:19:53.642Z,66.51
2017-03-30T08:20:34.243Z,66.51
2017-03-30T08:21:14.822Z,66.32
2017-03-30T08:21:55.426Z,66.32
2017-03-30T08:22:36.001Z,66.22
2017-03-30T08:23:16.585Z,66.8
2017-03-30T08:23:57.181Z,66.41
2017-03-30T08:24:37.742Z,66.61
2017-03-30T08:25:18.349Z,66.32
2017-03-30T08:25:58.933Z,66.51
2017-03-30T08:26:40.541Z,66.03
2017-03-30T08:27:21.229Z,66.35
2017-03-30T08:28:01.814Z,66.25
2017-03-30T08:28:42.448Z,66.32
2017-03-30T08:29:23.019Z,66.03
2017-03-30T08:30:03.613Z,65.88
2017-03-30T08:30:44.188Z,66.06
2017-03-30T08:31:24.784Z,65.94
2017-03-30T08:32:05.470Z,66.35
2017-03-30T08:32:48.094Z,65.97
2017-03-30T08:33:28.652Z,65.78
2017-03-30T08:34:09.255Z,65.3
2017-03-30T08:34:50.832Z,65.58
2017-03-30T08:35:32.413Z,65.49
2017-03-30T08:36:12.987Z,65.78
2017-03-30T08:36:53.586Z,65.68
2017-03-30T08:37:34.161Z,65.3
2017-03-30T08:38:14.767Z,65.58
2017-03-30T08:38:55.380Z,65.49
2017-03-30T08:39:35.931Z,65.2
2017-03-30T08:40:18.554Z,65.2
2017-03-30T08:40:59.140Z,65.01
2017-03-30T08:41:39.717Z,64.92
2017-03-30T08:42:20.339Z,64.92
2017-03-30T08:43:00.915Z,64.85
2017-03-30T08:43:41.512Z,64.56
2017-03-30T08:44:22.129Z,64.76
2017-03-30T08:45:02.711Z,64.47
2017-03-30T08:45:43.269Z,63.8
2017-03-30T08:46:23.868Z,63.8
2017-03-30T08:47:04.424Z,63.73
2017-03-30T08:47:44.991Z,63.54